createdAt,value
2019-03-15T00:04:39.798Z,97687.04
2019-03-15T00:09:42.303Z,97684.77
2019-03-15T00:14:45.502Z,97677.16
2019-03-15T00:19:48.830Z,97664.19
2019-03-15T00:24:52.005Z,97658.05
2019-03-15T00:29:55.017Z,97657.84
2019-03-15T00:34:58.238Z,97652.46
2019-03-15T00:40:01.454Z,97659.36
2019-03-15T00:45:08.168Z,97647.02
2019-03-15T00:50:12.720Z,97645.23
2019-03-15T00:55:15.777Z,97639.39
2019-03-15T01:00:18.848Z,97638.00
2019-03-15T01:05:22.012Z,97633.58
2019-03-15T01:10:25.234Z,97621.06
2019-03-15T01:15:28.338Z,97614.92
2019-03-15T01:20:31.458Z,97608.33
2019-03-15T01:25:34.627Z,97602.34
2019-03-15T01:30:37.685Z,97606.00
2019-03-15T01:35:40.867Z,97592.00
2019-03-15T01:40:44.212Z,97610.87
2019-03-15T01:45:47.251Z,97602.39
2019-03-15T01:50:50.810Z,97605.80
2019-03-15T01:55:53.951Z,97604.73
2019-03-15T02:00:57.078Z,97596.95
2019-03-15T02:06:00.339Z,97597.09
2019-03-15T02:11:03.718Z,97588.94
2019-03-15T02:16:06.992Z,97589.73
2019-03-15T02:21:09.985Z,97596.02
2019-03-15T02:26:12.931Z,97602.15
2019-03-15T02:31:16.017Z,97608.52
2019-03-15T02:36:19.336Z,97612.62
2019-03-15T02:41:22.494Z,97616.58
2019-03-15T02:46:25.950Z,97619.41
2019-03-15T02:51:29.420Z,97617.77
2019-03-15T02:56:32.482Z,97623.73
2019-03-15T03:01:35.545Z,97627.04
2019-03-15T03:06:38.812Z,97629.77
2019-03-15T03:11:41.906Z,97628.66
2019-03-15T03:16:46.043Z,97631.70
2019-03-15T03:21:49.521Z,97633.30
2019-03-15T03:26:52.678Z,97633.42
2019-03-15T03:31:55.652Z,97642.05
2019-03-15T03:36:59.227Z,97647.72
2019-03-15T03:42:02.962Z,97652.37
2019-03-15T03:47:05.995Z,97656.15
2019-03-15T03:52:08.974Z,97665.80
2019-03-15T03:57:11.922Z,97666.95
2019-03-15T04:02:15.165Z,97673.78
2019-03-15T04:07:18.517Z,97681.24
2019-03-15T04:12:22.154Z,97683.33
2019-03-15T04:17:25.454Z,97691.78
2019-03-15T04:22:28.808Z,97694.48
2019-03-15T04:27:32.215Z,97691.45
2019-03-15T04:32:35.371Z,97696.03
2019-03-15T04:37:38.947Z,97699.27
2019-03-15T04:42:42.125Z,97709.17
2019-03-15T04:47:45.313Z,97708.44
2019-03-15T04:52:48.437Z,97719.27
2019-03-15T04:57:51.648Z,97730.55
2019-03-15T05:02:54.747Z,97733.27
2019-03-15T05:07:57.803Z,97738.92
2019-03-15T05:13:00.897Z,97747.81
2019-03-15T05:18:03.885Z,97752.69
2019-03-15T05:23:07.090Z,97755.18
2019-03-15T05:28:10.129Z,97755.25
2019-03-15T05:33:13.250Z,97760.42
2019-03-15T05:38:16.214Z,97781.08
2019-03-15T05:43:19.223Z,97779.46
2019-03-15T05:48:22.187Z,97783.33
2019-03-15T05:53:25.296Z,97790.67
2019-03-15T05:58:28.441Z,97798.37
2019-03-15T06:03:31.526Z,97806.63
2019-03-15T06:08:34.919Z,97815.13
2019-03-15T06:13:37.879Z,97818.71
2019-03-15T06:18:40.964Z,97824.82
2019-03-15T06:23:44.014Z,97829.17
2019-03-15T06:28:47.103Z,97837.33
2019-03-15T06:33:50.179Z,97845.70
2019-03-15T06:38:53.244Z,97857.63
2019-03-15T06:43:56.344Z,97852.98
2019-03-15T06:48:59.360Z,97863.45
2019-03-15T06:54:11.280Z,97876.27
2019-03-15T06:59:07.322Z,97898.05
2019-03-15T07:04:10.397Z,97907.23
2019-03-15T07:09:13.485Z,97916.92
2019-03-15T07:14:16.857Z,97917.59
2019-03-15T07:19:26.449Z,97927.19
2019-03-15T07:24:25.806Z,97938.34
2019-03-15T07:29:28.985Z,97951.39
2019-03-15T07:34:32.034Z,97967.98
2019-03-15T07:39:35.034Z,97969.73
2019-03-15T07:44:38.145Z,97976.63
2019-03-15T07:49:41.420Z,97984.61
2019-03-15T07:54:44.644Z,97985.86
2019-03-15T07:59:48.006Z,98003.12
2019-03-15T08:04:51.071Z,98010.25
2019-03-15T08:09:54.193Z,98016.64
2019-03-15T08:14:57.291Z,98024.78
2019-03-15T08:20:00.528Z,98033.38
2019-03-15T08:25:04.729Z,98020.44
2019-03-15T08:30:10.532Z,98042.27
2019-03-15T08:35:13.837Z,98053.60
2019-03-15T08:40:16.920Z,98045.20
2019-03-15T08:45:20.065Z,98054.27
2019-03-15T08:50:24.568Z,98055.46
2019-03-15T08:55:27.944Z,98057.57
2019-03-15T09:00:31.118Z,98060.09
2019-03-15T09:05:34.216Z,98062.96
2019-03-15T09:10:37.303Z,98067.51
2019-03-15T09:15:40.426Z,98071.97
2019-03-15T09:20:43.417Z,98074.18
2019-03-15T09:25:46.809Z,98073.11
2019-03-15T09:30:49.918Z,98069.61
2019-03-15T09:35:53.126Z,98073.45
2019-03-15T09:40:56.405Z,98082.46
2019-03-15T09:45:59.547Z,98070.12
2019-03-15T09:51:02.755Z,98075.84
2019-03-15T09:56:05.992Z,98078.34
2019-03-15T10:01:09.339Z,98082.31
2019-03-15T10:06:16.576Z,98077.37
2019-03-15T10:11:17.833Z,98076.72
2019-03-15T10:16:21.102Z,98078.17
2019-03-15T10:21:24.394Z,98070.64
2019-03-15T10:26:27.549Z,98085.50
2019-03-15T10:31:30.579Z,98096.70
2019-03-15T10:36:34.751Z,98106.18
2019-03-15T10:41:38.420Z,98106.13
2019-03-15T10:46:41.740Z,98112.48
2019-03-15T10:51:44.756Z,98111.55
2019-03-15T10:56:47.936Z,98117.39
2019-03-15T11:01:51.420Z,98110.02
2019-03-15T11:06:54.820Z,98118.06
2019-03-15T11:11:57.996Z,98105.73
2019-03-15T11:17:01.587Z,98122.58
2019-03-15T11:22:05.038Z,98151.66
2019-03-15T11:27:08.075Z,98160.85
2019-03-15T11:32:11.099Z,98156.02
2019-03-15T11:37:14.286Z,98163.11
2019-03-15T11:42:17.760Z,98159.70
2019-03-15T11:47:21.084Z,98152.06
2019-03-15T11:52:24.421Z,98145.56
2019-03-15T11:57:27.526Z,98143.70
2019-03-15T12:02:30.584Z,98139.61
2019-03-15T12:07:34.010Z,98129.30
2019-03-15T12:12:37.161Z,98139.18
2019-03-15T12:17:40.392Z,98130.76
2019-03-15T12:22:44.273Z,98127.98
2019-03-15T12:27:47.327Z,98120.53
2019-03-15T12:32:50.277Z,98127.88
2019-03-15T12:37:53.693Z,98118.37
2019-03-15T12:42:57.150Z,98130.94
2019-03-15T12:48:00.249Z,98124.50
2019-03-15T12:53:03.572Z,98126.80
2019-03-15T12:58:06.766Z,98132.13
2019-03-15T13:03:10.220Z,98129.44
2019-03-15T13:08:13.504Z,98135.94
2019-03-15T13:13:16.627Z,98133.09
2019-03-15T13:18:20.130Z,98130.10
2019-03-15T13:23:23.322Z,98132.13
2019-03-15T13:28:26.535Z,98115.73
2019-03-15T13:33:29.655Z,98127.42
2019-03-15T13:38:32.645Z,98120.96
2019-03-15T13:43:35.631Z,98127.61
2019-03-15T13:48:38.787Z,98114.59
2019-03-15T13:53:42.125Z,98116.43
2019-03-15T13:58:56.621Z,98122.23
2019-03-15T14:03:50.348Z,98113.50
2019-03-15T14:08:53.473Z,98116.28
2019-03-15T14:13:56.991Z,98118.19
2019-03-15T14:24:09.787Z,98127.94
2019-03-15T14:29:12.915Z,98125.30
2019-03-15T14:34:15.992Z,98118.50
2019-03-15T14:39:19.419Z,98115.78
2019-03-15T14:44:22.683Z,98117.70
2019-03-15T14:49:25.762Z,98111.95
2019-03-15T14:54:28.938Z,98104.22
2019-03-15T14:59:32.226Z,98107.72
2019-03-15T15:04:35.184Z,98112.09
2019-03-15T15:09:38.545Z,98099.27
2019-03-15T15:14:41.638Z,98086.52
2019-03-15T15:19:44.723Z,98090.20
2019-03-15T15:24:47.954Z,98084.69
2019-03-15T15:29:51.074Z,98079.23
2019-03-15T15:34:54.174Z,98074.63
2019-03-15T15:40:00.027Z,98074.27
2019-03-15T15:45:02.440Z,98071.59
2019-03-15T15:50:06.659Z,98068.68
2019-03-15T15:55:09.990Z,98074.94
2019-03-15T16:00:13.405Z,98070.95
2019-03-15T16:05:16.620Z,98079.63
2019-03-15T16:10:19.719Z,98070.08
2019-03-15T16:15:22.847Z,98063.13
2019-03-15T16:20:26.252Z,98066.75
2019-03-15T16:25:29.411Z,98055.84
2019-03-15T16:30:32.398Z,98052.77
2019-03-15T16:35:35.580Z,98051.31
2019-03-15T16:40:38.886Z,98043.86
2019-03-15T16:45:42.005Z,98038.93
2019-03-15T16:50:45.611Z,98042.92
2019-03-15T16:55:48.925Z,98036.71
2019-03-15T17:00:52.047Z,98048.56
2019-03-15T17:05:55.473Z,98038.55
2019-03-15T17:10:58.883Z,98042.55
2019-03-15T17:16:02.104Z,98030.42
2019-03-15T17:21:05.503Z,98029.31
2019-03-15T17:26:08.798Z,98022.73
2019-03-15T17:31:12.039Z,98018.25
2019-03-15T17:36:15.070Z,98009.39
2019-03-15T17:41:18.142Z,98014.70
2019-03-15T17:46:21.558Z,98012.55
2019-03-15T17:51:24.778Z,97997.37
2019-03-15T17:56:28.230Z,97995.10
2019-03-15T18:01:31.433Z,97990.31
2019-03-15T18:06:34.912Z,97973.56
2019-03-15T18:11:38.016Z,97975.55
2019-03-15T18:16:41.200Z,97978.94
2019-03-15T18:21:44.333Z,97981.81
2019-03-15T18:26:47.640Z,97985.20
2019-03-15T18:31:50.732Z,97987.59
2019-03-15T18:36:53.833Z,97979.17
2019-03-15T18:41:56.820Z,97985.23
2019-03-15T18:46:59.850Z,97970.17
2019-03-15T18:52:03.004Z,97965.73
2019-03-15T18:57:06.534Z,97950.46
2019-03-15T19:02:09.555Z,97941.77
2019-03-15T19:07:14.165Z,97935.74
2019-03-15T19:12:17.366Z,97942.72
2019-03-15T19:17:20.751Z,97943.95
2019-03-15T19:22:24.151Z,97948.50
2019-03-15T19:27:27.278Z,97950.22
2019-03-15T19:32:33.333Z,97928.66
2019-03-15T19:37:35.306Z,97926.64
2019-03-15T19:42:38.817Z,97926.16
2019-03-15T19:47:41.972Z,97920.53
2019-03-15T19:52:45.048Z,97911.72
2019-03-15T19:57:48.212Z,97901.29
2019-03-15T20:02:51.429Z,97897.91
2019-03-15T20:07:54.363Z,97885.58
2019-03-15T20:12:57.618Z,97860.48
2019-03-15T20:18:00.649Z,97820.89
2019-03-15T20:23:03.719Z,97785.73
2019-03-15T20:28:06.724Z,97735.99
2019-03-15T20:33:09.946Z,97727.91
2019-03-15T20:38:13.173Z,97781.25
2019-03-15T20:43:16.113Z,97813.40
2019-03-15T20:48:19.375Z,97799.19
2019-03-15T20:53:22.592Z,97803.55
2019-03-15T20:58:25.574Z,97769.83
2019-03-15T21:03:28.623Z,97767.85
2019-03-15T21:08:31.794Z,97785.41
2019-03-15T21:13:34.786Z,97779.75
2019-03-15T21:18:37.923Z,97773.45
2019-03-15T21:23:40.916Z,97769.75
2019-03-15T21:28:44.135Z,97762.69
2019-03-15T21:33:47.356Z,97755.94
2019-03-15T21:38:50.449Z,97736.61
2019-03-15T21:43:54.423Z,97735.64
2019-03-15T21:48:57.612Z,97728.41
2019-03-15T21:54:00.675Z,97719.72
2019-03-15T21:59:04.558Z,97728.54
2019-03-15T22:04:08.075Z,97727.85
2019-03-15T22:09:11.250Z,97733.67
2019-03-15T22:14:14.495Z,97734.50
2019-03-15T22:19:17.911Z,97727.98
2019-03-15T22:24:21.002Z,97703.95
2019-03-15T22:29:24.092Z,97656.31
2019-03-15T22:34:27.528Z,97629.75
2019-03-15T22:39:30.847Z,97660.75
2019-03-15T22:44:34.347Z,97665.69
2019-03-15T22:49:37.543Z,97656.30
2019-03-15T22:54:40.968Z,97656.61
2019-03-15T22:59:44.060Z,97652.55
2019-03-15T23:04:47.062Z,97671.31
2019-03-15T23:09:50.147Z,97669.88
2019-03-15T23:14:53.134Z,97677.88
2019-03-15T23:19:56.399Z,97674.94
2019-03-15T23:24:59.367Z,97687.08
2019-03-15T23:30:02.786Z,97700.18
2019-03-15T23:35:06.273Z,97729.64
2019-03-15T23:40:09.734Z,97740.72
2019-03-15T23:45:13.051Z,97771.88
2019-03-15T23:50:16.250Z,97764.90
2019-03-15T23:55:19.499Z,97741.75
